createdAt,value
2018-08-09T00:03:20.083Z,1.67
2018-08-09T00:08:24.379Z,2.23
2018-08-09T00:13:27.571Z,2.57
2018-08-09T00:18:30.939Z,2.27
2018-08-09T00:23:34.133Z,2.37
2018-08-09T00:28:37.338Z,2.30
2018-08-09T00:33:40.609Z,2.37
2018-08-09T00:38:44.898Z,2.37
2018-08-09T00:43:48.094Z,2.63
2018-08-09T00:48:52.605Z,2.53
2018-08-09T00:53:55.806Z,2.40
2018-08-09T00:59:01.113Z,2.67
2018-08-09T01:04:04.315Z,2.67
2018-08-09T01:09:20.672Z,2.80
2018-08-09T01:14:24.022Z,2.43
2018-08-09T01:19:27.374Z,2.47
2018-08-09T01:24:43.888Z,2.43
2018-08-09T01:29:47.108Z,2.40
2018-08-09T01:34:50.429Z,2.60
2018-08-09T01:39:54.091Z,2.03
2018-08-09T01:44:57.544Z,2.50
2018-08-09T01:50:01.342Z,2.70
2018-08-09T01:55:04.707Z,2.53
2018-08-09T02:00:08.032Z,2.23
2018-08-09T02:05:11.410Z,2.00
2018-08-09T02:10:14.614Z,2.23
2018-08-09T02:15:17.816Z,2.00
2018-08-09T02:20:21.990Z,2.10
2018-08-09T02:25:25.201Z,2.47
2018-08-09T02:30:28.402Z,2.43
2018-08-09T02:35:32.675Z,1.93
2018-08-09T02:40:35.925Z,2.70
2018-08-09T02:45:39.130Z,2.23
2018-08-09T02:50:42.358Z,2.40
2018-08-09T02:55:45.594Z,2.40
2018-08-09T03:00:48.790Z,2.97
2018-08-09T03:05:52.015Z,2.70
2018-08-09T03:10:55.220Z,2.80
2018-08-09T03:15:58.425Z,2.60
2018-08-09T03:21:01.640Z,3.20
2018-08-09T03:26:04.946Z,2.97
2018-08-09T03:31:09.218Z,3.23
2018-08-09T03:36:12.398Z,3.27
2018-08-09T03:41:15.561Z,3.37
2018-08-09T03:46:19.770Z,4.00
2018-08-09T03:51:22.949Z,3.77
2018-08-09T03:56:26.144Z,3.57
2018-08-09T04:01:29.393Z,3.67
2018-08-09T04:06:32.672Z,3.47
2018-08-09T04:11:35.891Z,3.67
2018-08-09T04:16:39.132Z,3.17
2018-08-09T04:21:42.313Z,3.10
2018-08-09T04:26:45.509Z,3.17
2018-08-09T04:31:48.703Z,2.93
2018-08-09T04:36:53.123Z,3.20
2018-08-09T04:41:56.295Z,3.20
2018-08-09T04:46:59.504Z,3.80
2018-08-09T04:52:02.705Z,3.73
2018-08-09T04:57:05.898Z,4.10
2018-08-09T05:02:09.115Z,3.30
2018-08-09T05:07:18.591Z,3.60
2018-08-09T05:12:21.777Z,3.27
2018-08-09T05:17:25.047Z,3.60
2018-08-09T05:22:28.205Z,4.10
2018-08-09T05:27:31.450Z,3.47
2018-08-09T05:32:34.762Z,4.00
2018-08-09T05:37:37.973Z,4.23
2018-08-09T05:42:41.195Z,4.07
2018-08-09T05:47:45.756Z,3.73
2018-08-09T05:52:49.119Z,3.60
2018-08-09T05:57:52.339Z,3.70
2018-08-09T06:02:55.510Z,4.13
2018-08-09T06:07:58.971Z,4.33
2018-08-09T06:13:02.255Z,3.90
2018-08-09T06:18:10.177Z,4.17
2018-08-09T06:23:13.964Z,4.10
2018-08-09T06:28:18.313Z,4.00
2018-08-09T06:33:21.601Z,4.37
2018-08-09T06:38:26.491Z,4.07
2018-08-09T06:43:29.702Z,4.53
2018-08-09T06:48:34.795Z,3.90
2018-08-09T06:53:40.309Z,3.77
2018-08-09T06:58:45.539Z,3.50
2018-08-09T07:03:48.834Z,3.17
2018-08-09T07:08:52.255Z,3.50
2018-08-09T07:13:59.182Z,3.70
2018-08-09T07:19:03.366Z,3.87
2018-08-09T07:24:06.631Z,9.50
2018-08-09T07:29:09.907Z,4.47
2018-08-09T07:34:13.241Z,33.60
2018-08-09T07:39:16.524Z,5.43
2018-08-09T07:44:26.410Z,4.53
2018-08-09T07:49:29.641Z,4.23
2018-08-09T07:54:32.843Z,4.33
2018-08-09T07:59:36.061Z,4.83
2018-08-09T08:04:44.049Z,6.20
2018-08-09T08:09:49.207Z,5.90
2018-08-09T08:14:52.510Z,7.80
2018-08-09T08:19:55.766Z,8.00
2018-08-09T08:24:58.976Z,9.57
2018-08-09T08:30:02.306Z,9.90
2018-08-09T08:35:06.176Z,9.77
2018-08-09T08:40:09.857Z,8.33
2018-08-09T08:45:14.078Z,9.60
2018-08-09T08:50:18.399Z,9.70
2018-08-09T08:55:21.641Z,9.67
2018-08-09T09:00:24.906Z,11.93
2018-08-09T09:05:28.337Z,10.10
2018-08-09T09:10:33.858Z,10.67
2018-08-09T09:15:37.072Z,9.93
2018-08-09T09:20:41.430Z,10.57
2018-08-09T09:25:44.683Z,9.30
2018-08-09T09:30:48.958Z,9.93
2018-08-09T09:35:52.207Z,10.77
2018-08-09T09:40:55.737Z,10.03
2018-08-09T09:45:58.994Z,10.70
2018-08-09T09:51:02.231Z,8.73
2018-08-09T09:56:05.525Z,8.93
2018-08-09T10:01:14.030Z,9.27
2018-08-09T10:06:28.017Z,9.70
2018-08-09T10:11:31.657Z,9.73
2018-08-09T10:16:34.969Z,10.43
2018-08-09T10:21:38.253Z,10.30
2018-08-09T10:26:41.566Z,8.77
2018-08-09T10:31:44.775Z,9.10
2018-08-09T10:36:48.078Z,8.00
2018-08-09T10:41:51.279Z,9.17
2018-08-09T10:46:54.450Z,8.70
2018-08-09T10:51:58.198Z,9.20
2018-08-09T10:57:01.401Z,9.67
2018-08-09T11:02:04.586Z,8.77
2018-08-09T11:07:08.070Z,8.57
2018-08-09T11:12:11.486Z,9.23
2018-08-09T11:17:14.745Z,7.70
2018-08-09T11:22:18.395Z,8.37
2018-08-09T11:27:21.578Z,7.97
2018-08-09T11:32:25.006Z,9.37
2018-08-09T11:37:28.278Z,10.37
2018-08-09T11:42:31.687Z,9.57
2018-08-09T11:47:34.957Z,10.80
2018-08-09T11:52:38.133Z,10.30
2018-08-09T11:57:48.948Z,11.70
2018-08-09T12:02:52.492Z,13.03
2018-08-09T12:07:55.782Z,10.87
2018-08-09T12:12:59.021Z,9.97
2018-08-09T12:18:02.255Z,12.10
2018-08-09T12:23:07.473Z,12.17
2018-08-09T12:28:10.658Z,12.53
2018-08-09T12:33:13.988Z,13.43
2018-08-09T12:38:17.859Z,12.23
2018-08-09T12:43:22.053Z,12.33
2018-08-09T12:48:25.309Z,12.67
2018-08-09T12:53:28.501Z,12.47
2018-08-09T12:58:31.749Z,11.37
2018-08-09T13:03:35.012Z,12.43
2018-08-09T13:08:38.287Z,12.90
2018-08-09T13:13:41.567Z,13.07
2018-08-09T13:18:45.072Z,10.33
2018-08-09T13:23:48.300Z,9.97
2018-08-09T13:28:51.494Z,6.03
2018-08-09T13:33:55.158Z,5.80
2018-08-09T13:38:58.367Z,5.40
2018-08-09T13:44:01.615Z,7.00
2018-08-09T13:49:05.007Z,9.77
2018-08-09T13:54:08.353Z,6.70
2018-08-09T13:59:11.602Z,5.33
2018-08-09T14:04:14.817Z,5.27
2018-08-09T14:09:17.990Z,6.57
2018-08-09T14:14:21.428Z,5.40
2018-08-09T14:19:24.594Z,5.87
2018-08-09T14:24:28.082Z,5.53
2018-08-09T14:29:31.262Z,5.37
2018-08-09T14:34:34.470Z,5.57
2018-08-09T14:39:37.671Z,6.40
2018-08-09T14:44:40.923Z,5.20
2018-08-09T14:49:44.161Z,5.20
2018-08-09T14:54:47.357Z,5.47
2018-08-09T14:59:50.648Z,5.60
2018-08-09T15:04:53.797Z,5.30
2018-08-09T15:09:57.443Z,5.67
2018-08-09T15:15:00.631Z,4.27
2018-08-09T15:20:05.651Z,5.00
2018-08-09T15:25:09.790Z,4.57
2018-08-09T15:30:16.359Z,3.97
2018-08-09T15:35:19.925Z,3.63
2018-08-09T15:40:23.558Z,3.40
2018-08-09T15:45:27.802Z,4.17
2018-08-09T15:50:32.023Z,3.60
2018-08-09T15:55:35.269Z,4.30
2018-08-09T16:00:38.447Z,3.80
2018-08-09T16:05:41.687Z,3.73
2018-08-09T16:10:47.440Z,3.47
2018-08-09T16:15:50.646Z,3.77
2018-08-09T16:20:53.877Z,3.73
2018-08-09T16:25:57.057Z,3.10
2018-08-09T16:31:01.907Z,3.40
2018-08-09T16:36:05.164Z,3.40
2018-08-09T16:41:08.338Z,3.90
2018-08-09T16:46:11.579Z,3.00
2018-08-09T16:51:14.778Z,3.17
2018-08-09T16:56:17.970Z,3.00
2018-08-09T17:01:21.157Z,2.60
2018-08-09T17:06:24.432Z,3.00
2018-08-09T17:11:28.289Z,2.53
2018-08-09T17:16:31.598Z,2.57
2018-08-09T17:21:36.256Z,2.80
2018-08-09T17:26:39.626Z,2.63
2018-08-09T17:31:42.860Z,2.40
2018-08-09T17:36:46.362Z,2.97
2018-08-09T17:41:49.578Z,2.40
2018-08-09T17:46:54.794Z,2.00
2018-08-09T17:51:59.314Z,2.17
2018-08-09T17:57:02.510Z,2.23
2018-08-09T18:02:05.898Z,1.97
2018-08-09T18:07:09.356Z,2.00
2018-08-09T18:12:14.229Z,2.40
2018-08-09T18:17:17.494Z,2.80
2018-08-09T18:22:20.781Z,2.37
2018-08-09T18:27:24.042Z,2.20
2018-08-09T18:32:27.559Z,2.70
2018-08-09T18:37:30.786Z,3.17
2018-08-09T18:42:34.019Z,2.20
2018-08-09T18:47:37.590Z,1.97
2018-08-09T18:52:41.854Z,2.07
2018-08-09T18:57:45.062Z,1.80
2018-08-09T19:02:49.059Z,2.00
2018-08-09T19:07:52.376Z,1.70
2018-08-09T19:12:55.619Z,2.23
2018-08-09T19:18:03.658Z,2.37
2018-08-09T19:23:06.842Z,3.00
2018-08-09T19:28:10.127Z,2.70
2018-08-09T19:33:13.378Z,2.73
2018-08-09T19:38:16.598Z,2.50
2018-08-09T19:43:19.905Z,2.27
2018-08-09T19:48:23.186Z,1.53
2018-08-09T19:53:26.425Z,1.77
2018-08-09T19:58:30.577Z,2.00
2018-08-09T20:03:34.827Z,1.80
2018-08-09T20:08:38.090Z,1.30
2018-08-09T20:13:41.321Z,1.50
2018-08-09T20:18:44.539Z,1.50
2018-08-09T20:23:48.775Z,1.40
2018-08-09T20:28:52.053Z,1.40
2018-08-09T20:33:55.406Z,1.20
2018-08-09T20:38:59.662Z,1.13
2018-08-09T20:44:04.846Z,2.00
2018-08-09T20:49:09.162Z,1.77
2018-08-09T20:54:12.322Z,2.50
2018-08-09T20:59:15.590Z,2.10
2018-08-09T21:04:22.012Z,2.30
2018-08-09T21:09:25.319Z,2.20
2018-08-09T21:14:28.598Z,2.13
2018-08-09T21:19:35.050Z,1.10
2018-08-09T21:24:38.248Z,1.13
2018-08-09T21:29:41.608Z,1.03
2018-08-09T21:34:44.858Z,0.83
2018-08-09T21:39:51.747Z,0.67
2018-08-09T21:44:55.035Z,0.80
2018-08-09T21:50:01.334Z,1.20
2018-08-09T21:55:05.141Z,1.07
2018-08-09T22:00:49.841Z,0.90
2018-08-09T22:05:58.709Z,0.60
2018-08-09T22:11:07.545Z,0.50
2018-08-09T22:16:16.270Z,0.70
2018-08-09T22:21:25.101Z,0.60
2018-08-09T22:26:28.337Z,0.50
2018-08-09T22:31:32.030Z,0.40
2018-08-09T22:36:35.244Z,0.60
2018-08-09T22:41:38.550Z,0.40
2018-08-09T22:46:41.770Z,0.40
2018-08-09T22:51:45.009Z,0.47
2018-08-09T22:56:48.220Z,0.30
2018-08-09T23:01:51.395Z,0.20
2018-08-09T23:06:54.632Z,0.20
2018-08-09T23:11:57.794Z,0.10
2018-08-09T23:17:00.984Z,0.10
2018-08-09T23:22:04.378Z,0.03
2018-08-09T23:27:07.574Z,0.10
2018-08-09T23:32:10.833Z,0.10
2018-08-09T23:37:14.026Z,0.10
2018-08-09T23:42:17.178Z,0.10
2018-08-09T23:47:20.406Z,0.20
2018-08-09T23:52:23.655Z,0.30
2018-08-09T23:57:26.830Z,0.30
